Time;durP1;ratioP1;P1;durP2;ratioP2;P2;SDS_P1;SDS_P2;PMS_P1;PMS_P2;Temp;Humidity;BMP_temperature;BMP_pressure;BME280_temperature;BME280_humidity;BME280_pressure;Samples;Min_cycle;Max_cycle;Signal;HPM_P1;HPM_P2
2021/03/05 00:02:17;;;;;;;3.97;0.88;;;;;;;0.23;41.41;97636.25;10676886;27;20504;-52
2021/03/05 00:07:19;;;;;;;2.47;0.82;;;;;;;0.19;41.42;97636.63;10674637;27;20555;-55
2021/03/05 00:12:21;;;;;;;3.40;1.00;;;;;;;0.14;41.56;97643.88;10674002;27;20038;-51
2021/03/05 00:17:23;;;;;;;4.97;1.33;;;;;;;0.14;41.57;97646.47;10673344;27;20038;-51
2021/03/05 00:22:25;;;;;;;6.90;1.60;;;;;;;0.09;41.48;97651.16;10673327;27;20079;-51
2021/03/05 00:27:28;;;;;;;3.97;1.42;;;;;;;0.04;41.56;97653.28;10674624;27;20042;-52
2021/03/05 00:32:30;;;;;;;3.70;1.47;;;;;;;-0.02;42.11;97665.69;10675157;27;20064;-53
2021/03/05 00:37:31;;;;;;;5.00;1.67;;;;;;;-0.10;41.89;97668.00;10674607;27;20142;-51
2021/03/05 00:42:34;;;;;;;4.20;1.50;;;;;;;-0.17;42.13;97666.00;10675238;27;20038;-53
2021/03/05 00:47:36;;;;;;;4.78;1.65;;;;;;;-0.26;42.70;97667.50;10674921;27;20099;-53
2021/03/05 00:52:39;;;;;;;4.60;1.50;;;;;;;-0.30;42.83;97671.25;10676414;27;20106;-61
2021/03/05 00:57:42;;;;;;;4.03;1.50;;;;;;;-0.31;42.98;97673.03;10676173;27;20133;-53
2021/03/05 01:02:45;;;;;;;5.78;1.80;;;;;;;-0.30;42.47;97676.44;10672739;27;20137;-51
2021/03/05 01:07:47;;;;;;;4.68;1.65;;;;;;;-0.32;42.78;97676.53;10672222;27;20110;-58
2021/03/05 01:12:58;;;;;;;6.07;1.75;;;;;;;-0.35;42.71;97678.50;10656728;27;20156;-51
2021/03/05 01:18:00;;;;;;;3.80;1.42;;;;;;;-0.38;42.68;97678.72;10672057;27;20042;-51
2021/03/05 01:23:03;;;;;;;5.75;1.58;;;;;;;-0.49;43.29;97682.94;10671858;27;20054;-51
2021/03/05 01:28:05;;;;;;;3.90;1.50;;;;;;;-0.55;43.35;97690.28;10675283;27;20054;-53
2021/03/05 01:33:07;;;;;;;4.90;1.70;;;;;;;-0.56;43.28;97694.59;10677282;27;20049;-54
2021/03/05 01:38:09;;;;;;;5.85;1.48;;;;;;;-0.59;43.91;97696.59;10674407;27;20050;-51
2021/03/05 01:43:13;;;;;;;3.72;1.60;;;;;;;-0.65;43.43;97710.75;10671589;27;20043;-52
2021/03/05 01:48:18;;;;;;;5.22;1.83;;;;;;;-0.70;43.88;97721.41;10670219;27;20046;-53
2021/03/05 01:53:21;;;;;;;4.80;1.58;;;;;;;-0.69;43.74;97729.97;10675431;27;20043;-50
2021/03/05 01:58:25;;;;;;;4.43;1.80;;;;;;;-0.71;43.43;97732.69;10670665;27;20095;-51
2021/03/05 02:03:27;;;;;;;3.78;1.70;;;;;;;-0.73;44.23;97731.13;10651954;27;20052;-55
2021/03/05 02:08:29;;;;;;;6.03;2.00;;;;;;;-0.83;44.52;97737.84;10669782;27;20043;-51
2021/03/05 02:13:31;;;;;;;4.60;2.08;;;;;;;-0.90;44.67;97745.19;10671413;27;20098;-51
2021/03/05 02:18:40;;;;;;;5.25;2.00;;;;;;;-0.88;44.74;97751.09;10669355;27;20058;-53
2021/03/05 02:23:55;;;;;;;4.35;1.70;;;;;;;-0.91;44.56;97758.22;10670598;27;20107;-51
2021/03/05 02:29:32;;;;;;;4.30;1.50;;;;;;;-1.03;45.20;97763.28;10669539;27;20042;-52
2021/03/05 02:34:38;;;;;;;4.10;1.60;;;;;;;-1.10;45.23;97764.66;10637389;27;20054;-52
2021/03/05 02:39:43;;;;;;;3.22;1.55;;;;;;;-1.08;45.00;97773.09;10669711;27;20045;-51
2021/03/05 02:44:51;;;;;;;4.57;1.90;;;;;;;-1.05;45.30;97775.44;10668298;27;20061;-53
2021/03/05 02:49:56;;;;;;;4.82;2.05;;;;;;;-1.08;45.21;97783.41;10670685;27;20149;-54
2021/03/05 02:55:01;;;;;;;5.60;2.03;;;;;;;-1.11;45.13;97787.94;10675538;27;20141;-51
2021/03/05 03:00:05;;;;;;;7.40;2.15;;;;;;;-1.15;44.87;97789.91;10651686;27;20424;-53
2021/03/05 03:05:10;;;;;;;5.25;2.00;;;;;;;-1.18;45.31;97790.94;10621409;27;20055;-53
2021/03/05 03:10:13;;;;;;;5.80;2.03;;;;;;;-1.20;45.30;97790.25;10625381;28;20639;-53
2021/03/05 03:15:16;;;;;;;6.90;1.88;;;;;;;-1.28;45.74;97784.75;10629843;27;20360;-52
2021/03/05 03:20:21;;;;;;;4.60;1.80;;;;;;;-1.28;45.26;97791.69;10624590;28;20491;-51
2021/03/05 03:25:23;;;;;;;5.22;2.03;;;;;;;-1.24;45.69;97798.28;10628144;28;20047;-51
2021/03/05 03:30:25;;;;;;;6.67;1.90;;;;;;;-1.22;45.38;97792.09;10647663;27;20470;-52
2021/03/05 03:35:29;;;;;;;4.70;2.10;;;;;;;-1.15;45.28;97800.22;10668123;27;20061;-53
2021/03/05 03:40:31;;;;;;;8.57;1.80;;;;;;;-1.12;45.50;97802.59;10667980;27;20474;-52
2021/03/05 03:45:36;;;;;;;7.40;1.73;;;;;;;-1.01;45.32;97809.63;10667826;27;20106;-54
2021/03/05 03:50:43;;;;;;;4.93;1.83;;;;;;;-0.90;45.85;97814.84;10649981;27;20553;-52
2021/03/05 03:55:45;;;;;;;5.50;2.25;;;;;;;-0.98;45.58;97817.97;10649122;27;20073;-51
2021/03/05 04:00:48;;;;;;;4.25;2.08;;;;;;;-1.06;45.61;97825.38;10674203;27;20039;-54
2021/03/05 04:05:52;;;;;;;5.37;1.60;;;;;;;-1.17;46.22;97810.66;10660491;27;20049;-50
2021/03/05 04:10:54;;;;;;;6.53;1.50;;;;;;;-1.25;46.59;97812.09;10631616;27;20078;-51
2021/03/05 04:15:56;;;;;;;5.78;1.40;;;;;;;-1.23;46.56;97812.78;10651118;27;20080;-52
2021/03/05 04:21:02;;;;;;;5.43;1.73;;;;;;;-0.91;46.99;97822.69;10639294;27;20054;-56
2021/03/05 04:26:04;;;;;;;4.25;1.40;;;;;;;0.15;48.01;97832.38;10650129;27;20054;-51
2021/03/05 04:31:06;;;;;;;4.93;1.60;;;;;;;1.25;47.17;97843.19;10674576;27;20121;-52
2021/03/05 04:36:09;;;;;;;3.85;1.70;;;;;;;2.10;46.53;97840.00;10645235;27;20054;-51
2021/03/05 04:41:10;;;;;;;4.03;1.47;;;;;;;2.66;45.63;97842.31;10630956;27;20051;-51
2021/03/05 04:46:12;;;;;;;3.88;1.48;;;;;;;2.37;44.51;97865.44;10636831;27;20576;-51
2021/03/05 04:51:14;;;;;;;3.80;1.50;;;;;;;2.15;44.86;97863.75;10631837;27;20133;-53
2021/03/05 04:56:16;;;;;;;4.32;1.70;;;;;;;1.93;44.20;97864.66;10631886;27;20047;-51
2021/03/05 05:01:18;;;;;;;5.57;1.90;;;;;;;1.75;45.05;97872.91;10673121;27;20546;-51
2021/03/05 05:06:21;;;;;;;3.78;1.40;;;;;;;1.97;45.17;97877.25;10672803;27;20141;-52
2021/03/05 05:11:22;;;;;;;4.88;2.05;;;;;;;3.20;45.54;97873.25;10662369;27;20451;-51
2021/03/05 05:16:26;;;;;;;4.80;1.70;;;;;;;6.03;45.02;97881.75;10672648;27;20095;-53
2021/03/05 05:21:29;;;;;;;4.93;1.73;;;;;;;8.63;42.66;97883.47;10672833;27;20054;-51
2021/03/05 05:26:30;;;;;;;3.75;1.70;;;;;;;10.26;39.42;97888.34;10665357;27;20079;-53
2021/03/05 05:31:32;;;;;;;3.60;1.58;;;;;;;10.95;38.42;97898.84;10672592;27;20113;-53
2021/03/05 05:36:35;;;;;;;3.85;1.77;;;;;;;10.58;36.95;97903.06;10671802;27;20042;-54
2021/03/05 05:41:40;;;;;;;3.72;1.40;;;;;;;12.11;37.04;97904.59;10675080;27;20507;-54
2021/03/05 05:46:42;;;;;;;4.18;1.55;;;;;;;14.30;34.01;97905.47;10672942;27;20385;-53
2021/03/05 05:51:47;;;;;;;4.80;2.20;;;;;;;13.26;33.31;97907.16;10669214;27;20050;-54
2021/03/05 05:56:51;;;;;;;4.35;2.00;;;;;;;13.96;32.80;97917.75;10669155;27;20046;-52
2021/03/05 06:01:53;;;;;;;;;;;;;;;14.00;32.51;97918.97;10669816;27;20454;-53
2021/03/05 06:06:56;;;;;;;8.00;2.03;;;;;;;15.25;32.17;97914.22;10669308;27;19923;-54
2021/03/05 06:11:58;;;;;;;5.05;1.85;;;;;;;16.56;29.74;97922.84;10669533;27;20139;-54
2021/03/05 06:17:01;;;;;;;3.80;1.70;;;;;;;15.22;29.06;97925.19;10669558;27;20061;-53
2021/03/05 06:22:17;;;;;;;5.05;2.33;;;;;;;14.03;29.31;97926.50;10668797;27;20123;-52
2021/03/05 06:27:27;;;;;;;5.05;1.88;;;;;;;13.98;29.37;97940.31;10673773;27;20035;-52
2021/03/05 06:32:37;;;;;;;7.78;2.22;;;;;;;15.43;27.70;97932.94;10668548;27;20042;-53
2021/03/05 06:37:45;;;;;;;7.18;2.03;;;;;;;15.51;26.99;97942.50;10668416;27;20046;-54
2021/03/05 06:42:52;;;;;;;4.22;1.60;;;;;;;15.35;26.58;97938.44;10669562;27;20133;-53
2021/03/05 06:48:01;;;;;;;5.07;1.50;;;;;;;17.32;25.96;97950.31;10683700;27;20133;-54
2021/03/05 06:53:20;;;;;;;7.47;2.17;;;;;;;19.32;23.68;97948.78;10668744;27;20058;-54
2021/03/05 06:58:22;;;;;;;6.20;1.50;;;;;;;21.54;22.54;97946.56;10667759;27;20478;-53
2021/03/05 07:03:24;;;;;;;3.67;1.23;;;;;;;23.47;20.42;97945.56;10667208;27;20043;-53
2021/03/05 07:08:40;;;;;;;3.45;1.50;;;;;;;24.28;18.66;97945.25;10671351;27;20070;-53
2021/03/05 07:13:49;;;;;;;4.93;1.58;;;;;;;25.27;17.88;97952.25;10649639;27;20070;-54
2021/03/05 07:18:50;;;;;;;3.70;1.40;;;;;;;22.89;16.79;97956.84;10667576;27;20055;-63
2021/03/05 07:23:55;;;;;;;4.07;1.13;;;;;;;18.84;19.14;97969.19;10666303;27;20371;-55
2021/03/05 07:28:58;;;;;;;3.30;1.40;;;;;;;18.84;20.30;97971.84;10669166;27;20047;-56
2021/03/05 07:34:02;;;;;;;4.28;1.58;;;;;;;20.21;19.32;97964.69;10676259;27;20050;-53
2021/03/05 07:39:05;;;;;;;5.00;1.63;;;;;;;21.42;17.66;97964.53;10675704;27;20089;-53
2021/03/05 07:44:07;;;;;;;7.65;2.30;;;;;;;21.55;16.41;97966.91;10675936;27;20043;-54
2021/03/05 07:49:10;;;;;;;5.18;1.77;;;;;;;20.81;17.72;97976.81;10675770;27;20047;-55
2021/03/05 07:54:12;;;;;;;3.90;1.55;;;;;;;20.32;17.32;97987.03;10676029;27;20043;-53
2021/03/05 07:59:46;;;;;;;4.65;1.70;;;;;;;21.07;16.81;97983.44;10675067;27;20490;-53
2021/03/05 08:05:04;;;;;;;4.03;1.50;;;;;;;22.21;16.06;97990.34;10657831;27;20106;-55
2021/03/05 08:10:08;;;;;;;6.22;1.75;;;;;;;23.25;15.84;97989.38;10675016;27;20058;-54
2021/03/05 08:15:25;;;;;;;4.20;1.20;;;;;;;26.01;13.35;97987.72;10674277;27;20051;-54
2021/03/05 08:20:52;;;;;;;3.80;1.08;;;;;;;24.38;13.74;97998.19;10661994;27;20083;-55
2021/03/05 08:25:56;;;;;;;3.67;1.13;;;;;;;21.01;15.08;97995.09;10632427;27;20421;-56
2021/03/05 08:30:57;;;;;;;3.33;1.17;;;;;;;22.13;15.49;98001.41;10615628;27;20054;-53
2021/03/05 08:36:00;;;;;;;4.70;1.50;;;;;;;25.97;13.29;98005.50;10634131;27;20043;-54
2021/03/05 08:41:04;;;;;;;4.88;1.35;;;;;;;26.74;12.42;98005.28;10657876;27;20114;-54
2021/03/05 08:46:07;;;;;;;5.10;1.45;;;;;;;28.25;11.56;98000.88;10631545;27;20043;-54
2021/03/05 08:51:17;;;;;;;14.73;6.15;;;;;;;27.81;11.49;98012.69;10630969;27;20380;-54
2021/03/05 08:56:23;;;;;;;11.57;4.78;;;;;;;23.58;13.01;98009.75;10630460;27;20043;-54
2021/03/05 09:01:30;;;;;;;10.57;4.10;;;;;;;20.33;13.59;98010.00;10612728;27;20387;-54
2021/03/05 09:06:31;;;;;;;6.78;2.65;;;;;;;18.28;15.47;98018.13;10629032;27;20193;-54
2021/03/05 09:11:34;;;;;;;6.60;1.38;;;;;;;16.52;15.58;98016.28;10629770;27;20047;-54
2021/03/05 09:16:36;;;;;;;5.50;1.77;;;;;;;14.33;16.75;98029.31;10628566;27;20051;-53
2021/03/05 09:21:37;;;;;;;3.22;1.48;;;;;;;13.02;17.60;98044.69;10633711;27;20391;-54
2021/03/05 09:26:41;;;;;;;3.72;0.95;;;;;;;12.08;17.90;98041.91;10629655;27;20476;-53
2021/03/05 09:31:42;;;;;;;2.72;0.90;;;;;;;10.64;18.57;98059.22;10610229;27;20069;-55
2021/03/05 09:36:44;;;;;;;2.63;0.90;;;;;;;9.95;19.20;98056.31;10610674;27;20440;-52
2021/03/05 09:41:48;;;;;;;2.65;0.82;;;;;;;9.92;19.42;98064.50;10629019;27;20146;-55
2021/03/05 09:46:56;;;;;;;3.50;1.10;;;;;;;13.08;18.89;98063.25;10635373;27;20395;-52
2021/03/05 09:51:58;;;;;;;2.85;0.90;;;;;;;19.68;14.74;98065.09;10625779;27;20373;-53
2021/03/05 09:57:00;;;;;;;3.08;1.25;;;;;;;21.00;13.81;98060.22;10625394;27;20125;-53
2021/03/05 10:02:02;;;;;;;2.20;0.90;;;;;;;17.66;16.21;98062.44;10626081;27;20125;-55
2021/03/05 10:07:06;;;;;;;4.85;1.45;;;;;;;14.28;18.08;98066.88;10626409;27;20043;-52
2021/03/05 10:12:09;;;;;;;3.10;1.20;;;;;;;11.58;21.08;98090.72;10626596;27;20066;-52
2021/03/05 10:17:13;;;;;;;3.33;1.17;;;;;;;9.41;24.09;98097.97;10629873;27;20365;-53
2021/03/05 10:22:15;;;;;;;5.63;1.80;;;;;;;8.90;24.53;98105.09;10608814;28;20339;-54
2021/03/05 10:27:19;;;;;;;4.32;1.33;;;;;;;8.79;24.54;98098.31;10608111;28;20057;-53
2021/03/05 10:32:22;;;;;;;2.55;1.08;;;;;;;8.91;24.22;98101.47;10627763;28;20043;-60
2021/03/05 10:37:25;;;;;;;3.20;1.20;;;;;;;8.60;24.48;98098.56;10630172;28;20039;-53
2021/03/05 10:42:29;;;;;;;4.95;1.60;;;;;;;7.87;24.97;98096.31;10611022;28;20047;-52
2021/03/05 10:47:32;;;;;;;4.97;1.33;;;;;;;7.38;25.31;98094.13;10607504;28;20051;-52
2021/03/05 10:52:34;;;;;;;6.27;1.53;;;;;;;7.09;25.26;98102.19;10606666;28;20043;-54
2021/03/05 10:57:39;;;;;;;3.80;1.30;;;;;;;6.76;25.08;98101.81;10624961;28;20141;-53
2021/03/05 11:02:41;;;;;;;3.20;1.15;;;;;;;6.76;24.69;98101.81;10625791;28;20470;-55
2021/03/05 11:07:42;;;;;;;4.22;1.20;;;;;;;6.78;24.52;98104.31;10624691;27;20150;-54
2021/03/05 11:12:45;;;;;;;6.13;1.17;;;;;;;6.73;24.24;98112.56;10625394;28;20047;-52
2021/03/05 11:17:46;;;;;;;4.32;1.13;;;;;;;6.38;24.50;98118.50;10626297;28;20544;-52
2021/03/05 11:22:48;;;;;;;3.30;1.30;;;;;;;6.07;24.44;98125.75;10592291;28;944111;-53
2021/03/05 11:27:51;;;;;;;3.95;1.00;;;;;;;6.12;24.85;98129.53;10626211;28;20051;-52
2021/03/05 11:32:53;;;;;;;4.28;1.13;;;;;;;5.95;24.57;98141.53;10625683;28;20047;-51
2021/03/05 11:37:54;;;;;;;2.67;1.00;;;;;;;5.82;24.25;98134.91;10629699;28;20057;-62
2021/03/05 11:42:57;;;;;;;4.78;1.20;;;;;;;5.90;24.68;98146.31;10629693;28;20043;-51
2021/03/05 11:47:59;;;;;;;4.03;1.08;;;;;;;5.91;24.80;98141.91;10611464;28;20051;-52
2021/03/05 11:53:01;;;;;;;4.03;0.80;;;;;;;5.83;25.21;98160.06;10626579;28;20068;-55
2021/03/05 11:58:03;;;;;;;2.88;0.98;;;;;;;5.86;24.78;98157.97;10624966;28;20122;-54
2021/03/05 12:03:05;;;;;;;4.10;1.10;;;;;;;5.66;25.04;98166.75;10625323;28;20152;-52
2021/03/05 12:08:07;;;;;;;3.83;1.20;;;;;;;5.95;24.89;98169.41;10626848;28;20039;-53
2021/03/05 12:13:11;;;;;;;2.80;0.80;;;;;;;5.87;24.74;98164.03;10625158;28;20090;-53
2021/03/05 12:18:13;;;;;;;3.15;1.30;;;;;;;5.43;24.86;98172.25;10610053;27;20454;-53
2021/03/05 12:23:15;;;;;;;7.28;2.33;;;;;;;5.19;25.34;98190.84;10632594;27;20070;-53
2021/03/05 12:28:17;;;;;;;3.40;1.15;;;;;;;4.91;26.41;98189.81;10631591;27;20047;-53
2021/03/05 12:33:19;;;;;;;5.55;1.70;;;;;;;4.62;27.14;98205.34;10632154;27;20043;-51
2021/03/05 12:38:21;;;;;;;4.72;1.55;;;;;;;4.36;27.35;98216.13;10631201;27;20047;-50
2021/03/05 12:43:23;;;;;;;3.10;1.17;;;;;;;4.02;27.69;98225.91;10631668;27;20051;-53
2021/03/05 12:48:25;;;;;;;4.03;1.42;;;;;;;3.81;28.00;98225.03;10631138;27;20464;-52
2021/03/05 12:53:26;;;;;;;3.17;1.25;;;;;;;3.87;27.94;98230.56;10630440;27;20336;-52
2021/03/05 12:58:29;;;;;;;8.05;2.10;;;;;;;3.81;28.59;98238.03;10630335;27;20501;-52
2021/03/05 13:03:32;;;;;;;4.75;1.75;;;;;;;3.64;28.47;98242.00;10611647;27;20043;-52
2021/03/05 13:08:33;;;;;;;6.47;2.55;;;;;;;3.55;28.76;98253.97;10631110;27;20487;-57
2021/03/05 13:13:36;;;;;;;3.45;1.60;;;;;;;3.37;29.12;98258.81;10611726;27;20039;-53
2021/03/05 13:18:38;;;;;;;4.85;1.70;;;;;;;3.19;29.07;98250.69;10631910;27;20047;-51
2021/03/05 13:23:40;;;;;;;5.55;2.20;;;;;;;3.25;28.79;98258.97;10630795;27;20100;-52
2021/03/05 13:28:44;;;;;;;4.57;1.80;;;;;;;3.43;29.28;98265.31;10628283;27;20042;-51
2021/03/05 13:33:46;;;;;;;5.25;1.40;;;;;;;3.81;28.61;98269.22;10629666;27;20043;-54
2021/03/05 13:38:51;;;;;;;5.68;1.40;;;;;;;4.06;28.46;98271.50;10611379;27;20127;-53
2021/03/05 13:43:53;;;;;;;3.95;1.38;;;;;;;4.24;27.88;98252.75;10628518;27;20176;-52
2021/03/05 13:48:55;;;;;;;3.85;1.13;;;;;;;4.17;27.70;98267.22;10628906;27;20145;-51
2021/03/05 13:53:57;;;;;;;2.60;1.00;;;;;;;4.12;27.17;98283.19;10628791;27;20364;-59
2021/03/05 13:58:59;;;;;;;4.32;1.10;;;;;;;3.64;27.30;98281.81;10610362;27;20078;-51
2021/03/05 14:04:01;;;;;;;4.35;1.50;;;;;;;3.16;27.98;98276.91;10627591;27;20058;-52
2021/03/05 14:09:03;;;;;;;5.85;1.60;;;;;;;3.01;27.74;98285.88;10629850;27;20047;-51
2021/03/05 14:14:06;;;;;;;7.03;1.58;;;;;;;2.81;27.67;98282.22;10627511;27;20391;-52
2021/03/05 14:19:09;;;;;;;5.28;1.95;;;;;;;2.54;28.06;98290.31;10627689;27;20063;-51
2021/03/05 14:24:11;;;;;;;6.63;2.45;;;;;;;2.29;28.09;98299.09;10626916;27;20039;-51
2021/03/05 14:29:14;;;;;;;3.75;1.27;;;;;;;2.20;28.38;98297.19;10620400;27;20154;-52
2021/03/05 14:34:17;;;;;;;4.03;1.57;;;;;;;2.12;28.17;98297.72;10641329;27;20138;-51
2021/03/05 14:39:19;;;;;;;4.82;1.65;;;;;;;2.09;27.97;98305.72;10631277;27;20047;-50
2021/03/05 14:44:21;;;;;;;5.85;1.80;;;;;;;1.97;27.84;98306.59;10649175;27;20052;-52
2021/03/05 14:49:23;;;;;;;5.35;1.50;;;;;;;1.81;28.29;98310.31;10622942;27;20057;-52
2021/03/05 14:54:25;;;;;;;5.15;1.70;;;;;;;1.66;27.67;98320.94;10624719;27;20050;-52
2021/03/05 14:59:27;;;;;;;5.43;1.90;;;;;;;1.53;28.05;98318.38;10623863;27;20051;-51
2021/03/05 15:04:29;;;;;;;4.97;1.60;;;;;;;1.46;28.30;98330.94;10624664;27;20047;-51
2021/03/05 15:09:31;;;;;;;6.05;2.00;;;;;;;1.37;28.02;98335.00;10662800;27;20054;-52
2021/03/05 15:14:34;;;;;;;4.95;1.83;;;;;;;1.26;28.29;98344.44;10666313;27;20049;-53
2021/03/05 15:19:35;;;;;;;7.85;1.95;;;;;;;1.16;28.30;98352.00;10661889;27;20546;-50
2021/03/05 15:24:37;;;;;;;6.07;2.00;;;;;;;1.06;28.41;98362.16;10623963;28;20391;-54
2021/03/05 15:29:40;;;;;;;5.63;1.63;;;;;;;0.92;28.28;98372.59;10607503;28;20051;-50
2021/03/05 15:34:41;;;;;;;7.03;1.58;;;;;;;0.76;28.34;98379.72;10623164;28;20043;-50
2021/03/05 15:39:43;;;;;;;6.10;2.17;;;;;;;0.69;28.53;98381.91;10610048;28;20055;-52
2021/03/05 15:44:46;;;;;;;4.78;1.67;;;;;;;0.65;28.28;98383.84;10611303;27;20759;-50
2021/03/05 15:49:47;;;;;;;5.20;1.77;;;;;;;0.58;28.58;98397.28;10639331;27;20046;-52
2021/03/05 15:54:50;;;;;;;3.50;1.40;;;;;;;0.55;28.86;98398.28;10657474;27;20443;-51
2021/03/05 15:59:52;;;;;;;6.15;2.08;;;;;;;0.54;28.70;98401.00;10657839;27;20044;-51
2021/03/05 16:04:54;;;;;;;10.35;2.53;;;;;;;0.49;28.37;98414.22;10665054;27;20051;-51
2021/03/05 16:09:56;;;;;;;4.18;1.60;;;;;;;0.38;29.09;98417.50;10668609;27;20063;-50
2021/03/05 16:14:59;;;;;;;6.85;2.17;;;;;;;0.41;28.83;98427.66;10669525;27;20046;-50
2021/03/05 16:20:00;;;;;;;7.30;2.30;;;;;;;0.39;29.08;98434.66;10675077;27;20062;-50
2021/03/05 16:25:02;;;;;;;7.00;2.28;;;;;;;0.35;29.19;98445.31;10672521;27;20141;-51
2021/03/05 16:30:09;;;;;;;6.47;2.10;;;;;;;0.36;28.55;98446.97;10678501;27;20584;-57
2021/03/05 16:35:13;;;;;;;9.60;2.53;;;;;;;0.33;29.12;98445.38;10674481;27;20133;-52
2021/03/05 16:40:15;;;;;;;;;;;;;;;0.31;28.99;98452.44;10630097;27;20487;-54
2021/03/05 16:45:17;;;;;;;7.32;2.17;;;;;;;0.27;29.17;98456.13;10613430;27;19923;-50
2021/03/05 16:50:19;;;;;;;7.75;2.60;;;;;;;0.21;29.27;98466.84;10665424;27;20062;-52
2021/03/05 16:55:21;;;;;;;7.00;2.13;;;;;;;0.17;28.94;98470.56;10673025;27;20047;-56
2021/03/05 17:00:26;;;;;;;8.60;2.25;;;;;;;0.15;29.42;98474.97;10673585;27;20065;-52
2021/03/05 17:05:27;;;;;;;6.53;2.38;;;;;;;0.08;29.49;98486.63;10653018;27;20186;-51
2021/03/05 17:10:30;;;;;;;9.38;3.53;;;;;;;0.05;29.31;98486.81;10670794;27;20360;-52
2021/03/05 17:15:33;;;;;;;4.63;2.57;;;;;;;-0.03;29.61;98495.88;10653779;27;20066;-53
2021/03/05 17:20:35;;;;;;;8.18;2.95;;;;;;;-0.09;30.16;98491.09;10670773;27;20054;-52
2021/03/05 17:25:36;;;;;;;13.43;3.15;;;;;;;-0.14;30.10;98493.09;10670933;27;20042;-54
2021/03/05 17:30:39;;;;;;;6.50;2.25;;;;;;;-0.21;30.31;98504.75;10670440;27;20049;-52
2021/03/05 17:35:41;;;;;;;6.40;2.22;;;;;;;-0.23;30.20;98514.31;10663594;27;20420;-52
2021/03/05 17:40:42;;;;;;;9.23;2.58;;;;;;;-0.26;30.76;98517.09;10627367;27;20161;-52
2021/03/05 17:45:45;;;;;;;7.68;2.67;;;;;;;-0.25;30.39;98516.16;10627169;27;20138;-55
2021/03/05 17:50:47;;;;;;;5.38;1.83;;;;;;;-0.28;30.43;98516.34;10597881;27;20108;-52
2021/03/05 17:55:49;;;;;;;4.80;1.63;;;;;;;-0.35;30.58;98518.47;10585147;28;20048;-50
2021/03/05 18:00:52;;;;;;;5.82;2.05;;;;;;;-0.39;31.05;98529.91;10583307;28;20047;-52
2021/03/05 18:05:54;;;;;;;6.97;1.75;;;;;;;-0.52;31.79;98524.63;10583410;28;20066;-50
2021/03/05 18:10:55;;;;;;;8.75;1.85;;;;;;;-0.56;32.09;98533.47;10583791;28;20035;-50
2021/03/05 18:15:58;;;;;;;8.98;2.22;;;;;;;-0.64;31.80;98532.28;10600165;27;20434;-50
2021/03/05 18:21:00;;;;;;;5.88;1.77;;;;;;;-0.64;32.36;98527.94;10625343;27;20065;-50
2021/03/05 18:26:02;;;;;;;4.90;1.73;;;;;;;-0.67;32.16;98533.28;10626951;27;20047;-50
2021/03/05 18:31:05;;;;;;;9.57;2.20;;;;;;;-0.70;32.23;98531.69;10630342;27;20047;-52
2021/03/05 18:36:08;;;;;;;8.52;2.50;;;;;;;-0.77;32.86;98529.53;10607127;27;20476;-50
2021/03/05 18:41:10;;;;;;;8.43;2.60;;;;;;;-0.78;32.62;98539.03;10595268;27;20051;-52
2021/03/05 18:46:13;;;;;;;7.88;2.50;;;;;;;-0.78;33.24;98540.78;10580820;28;20051;-53
2021/03/05 18:51:14;;;;;;;9.35;2.90;;;;;;;-0.89;33.21;98544.00;10601723;27;20581;-53
2021/03/05 18:56:16;;;;;;;7.07;3.28;;;;;;;-0.90;33.45;98549.22;10606322;27;20043;-51
2021/03/05 19:01:18;;;;;;;7.22;3.63;;;;;;;-0.94;34.13;98556.31;10605350;27;20050;-52
2021/03/05 19:06:20;;;;;;;10.32;2.58;;;;;;;-1.00;33.78;98560.06;10624156;27;20151;-52
2021/03/05 19:11:22;;;;;;;9.45;3.15;;;;;;;-1.09;34.50;98573.47;10623638;28;20043;-52
2021/03/05 19:16:25;;;;;;;7.47;3.60;;;;;;;-1.11;34.94;98575.31;10623070;28;20127;-51
2021/03/05 19:21:26;;;;;;;6.93;3.00;;;;;;;-1.17;34.75;98588.53;10605676;28;20495;-55
2021/03/05 19:26:28;;;;;;;10.57;3.63;;;;;;;-1.19;35.37;98588.63;10621444;27;20080;-51
2021/03/05 19:31:32;;;;;;;8.20;3.63;;;;;;;-1.21;35.75;98597.38;10651521;27;20134;-50
2021/03/05 19:36:33;;;;;;;8.27;3.00;;;;;;;-1.19;35.64;98603.28;10604523;27;20081;-51
2021/03/05 19:41:35;;;;;;;6.22;3.38;;;;;;;-1.19;35.95;98611.03;10634320;27;20070;-52
2021/03/05 19:46:38;;;;;;;6.60;3.00;;;;;;;-1.26;36.07;98619.97;10637343;27;20475;-53
2021/03/05 19:51:39;;;;;;;7.90;2.92;;;;;;;-1.27;35.75;98614.00;10637065;27;20043;-52
2021/03/05 19:56:41;;;;;;;9.73;3.47;;;;;;;-1.26;36.15;98615.69;10635671;27;20580;-52
2021/03/05 20:01:44;;;;;;;8.57;3.05;;;;;;;-1.29;36.31;98625.31;10631177;27;20051;-52
2021/03/05 20:06:46;;;;;;;6.97;2.65;;;;;;;-1.34;36.31;98632.47;10633239;27;20112;-50
2021/03/05 20:11:47;;;;;;;7.10;3.13;;;;;;;-1.32;36.11;98630.66;10631901;27;20103;-52
2021/03/05 20:16:50;;;;;;;6.22;2.65;;;;;;;-1.34;36.66;98637.63;10633396;27;20075;-52
2021/03/05 20:21:52;;;;;;;4.53;1.80;;;;;;;-1.38;36.76;98646.47;10632679;27;20057;-50
2021/03/05 20:26:54;;;;;;;10.95;3.08;;;;;;;-1.38;36.65;98651.63;10630707;27;20380;-65
2021/03/05 20:31:56;;;;;;;7.55;3.30;;;;;;;-1.42;36.58;98656.94;10638819;27;20479;-61
2021/03/05 20:36:58;;;;;;;8.73;3.22;;;;;;;-1.44;36.72;98652.75;10632478;27;20557;-51
2021/03/05 20:42:00;;;;;;;9.40;2.78;;;;;;;-1.48;36.75;98652.09;10615864;27;20134;-51
2021/03/05 20:47:03;;;;;;;13.88;6.22;;;;;;;-1.50;36.95;98651.34;10630372;27;20543;-52
2021/03/05 20:52:05;;;;;;;6.43;2.67;;;;;;;-1.47;36.84;98656.34;10629827;27;20051;-50
2021/03/05 20:57:08;;;;;;;9.50;3.60;;;;;;;-1.47;36.32;98660.66;10628504;27;20126;-50
2021/03/05 21:02:11;;;;;;;6.97;2.30;;;;;;;-1.48;36.48;98659.84;10628425;27;20047;-51
2021/03/05 21:07:12;;;;;;;7.95;3.03;;;;;;;-1.48;36.86;98662.41;10612184;27;20043;-53
2021/03/05 21:12:14;;;;;;;6.38;2.65;;;;;;;-1.47;36.73;98664.06;10630167;27;20567;-51
2021/03/05 21:17:17;;;;;;;10.45;4.10;;;;;;;-1.45;36.59;98667.41;10629224;27;20387;-50
2021/03/05 21:22:19;;;;;;;35.13;13.75;;;;;;;-1.43;36.47;98675.03;10630139;27;20080;-52
2021/03/05 21:27:21;;;;;;;5.90;2.73;;;;;;;-1.48;36.86;98672.72;10629848;27;20247;-59
2021/03/05 21:32:24;;;;;;;18.98;6.60;;;;;;;-1.54;36.82;98673.03;10671354;27;20432;-51
2021/03/05 21:37:25;;;;;;;5.65;2.20;;;;;;;-1.55;36.62;98679.09;10649759;27;20165;-52
2021/03/05 21:42:27;;;;;;;16.90;6.00;;;;;;;-1.61;37.08;98687.13;10628779;27;20059;-53
2021/03/05 21:47:30;;;;;;;15.07;2.42;;;;;;;-1.67;36.89;98677.97;10627299;27;20353;-52
2021/03/05 21:52:32;;;;;;;7.93;2.65;;;;;;;-1.72;37.30;98684.31;10626452;27;20065;-52
2021/03/05 21:57:33;;;;;;;6.65;2.53;;;;;;;-1.79;37.13;98682.94;10626125;27;20410;-52
2021/03/05 22:02:36;;;;;;;8.88;2.03;;;;;;;-1.81;37.40;98682.19;10626758;27;20088;-50
2021/03/05 22:07:38;;;;;;;5.15;2.33;;;;;;;-1.94;37.72;98690.53;10627219;27;20051;-52
2021/03/05 22:12:39;;;;;;;4.63;1.90;;;;;;;-2.04;38.28;98699.63;10625656;27;20043;-52
2021/03/05 22:17:42;;;;;;;4.82;1.30;;;;;;;-2.11;38.83;98695.69;10626043;27;20396;-50
2021/03/05 22:22:44;;;;;;;5.68;1.77;;;;;;;-2.18;38.96;98699.50;10625742;27;20069;-51
2021/03/05 22:27:46;;;;;;;5.43;1.80;;;;;;;-2.19;38.93;98700.38;10626197;27;20045;-50
2021/03/05 22:32:49;;;;;;;5.25;2.58;;;;;;;-2.18;39.00;98696.91;10627328;27;20047;-53
2021/03/05 22:37:51;;;;;;;4.00;1.90;;;;;;;-2.19;39.15;98710.69;10632234;27;20042;-53
2021/03/05 22:42:53;;;;;;;5.10;1.85;;;;;;;-2.18;38.95;98712.38;10626490;27;20043;-51
2021/03/05 22:47:55;;;;;;;6.90;2.90;;;;;;;-2.19;39.19;98715.81;10609032;27;20543;-51
2021/03/05 22:52:57;;;;;;;5.75;2.00;;;;;;;-2.17;39.14;98726.91;10627423;27;20586;-52
2021/03/05 22:57:59;;;;;;;7.75;2.72;;;;;;;-2.21;38.88;98727.97;10626487;27;20369;-51
2021/03/05 23:03:02;;;;;;;7.97;2.55;;;;;;;-2.22;38.98;98736.56;10624933;27;20047;-50
2021/03/05 23:08:03;;;;;;;5.40;2.08;;;;;;;-2.19;38.74;98726.13;10624970;27;20061;-51
2021/03/05 23:13:06;;;;;;;7.90;3.13;;;;;;;-2.20;39.13;98737.34;10624074;28;20047;-55
2021/03/05 23:18:09;;;;;;;8.57;2.83;;;;;;;-2.21;39.05;98735.69;10624192;28;20053;-52
2021/03/05 23:23:14;;;;;;;7.35;2.67;;;;;;;-2.27;39.29;98733.41;10632027;27;20051;-51
2021/03/05 23:28:16;;;;;;;5.85;2.30;;;;;;;-2.30;39.39;98741.28;10628049;28;20379;-52
2021/03/05 23:33:19;;;;;;;9.13;3.03;;;;;;;-2.35;39.21;98733.75;10626567;28;20138;-51
2021/03/05 23:38:22;;;;;;;8.10;3.13;;;;;;;-2.38;39.32;98741.63;10625607;28;20398;-52